Rose Tree, Pennsylvania
Current Conditions -  °F | °C
As of 12:06 AM on Tuesday 23 Dec 2014 (Local Time) from KPHL Reporting Station
Haze Haze  
Wind Chill: 40°   Ceiling: 4300
Heat Index: 44°   Visibility: 5mi
Dew Point: 41°   Wind: 7mph
Humidity: 89%   Direction: 60°ENE
Pressure: 30.11"   Gusts: NA
Location:  39.9207°N, 75.4181°W
Report Text: KPHL 230506Z 06006KT 5SM BR SCT005 BKN043 OVC090 07/05 A3011 RMK AO2 T00670050 $
Loading
Personal Weather Stations






























Interactive Weather Map New forecast layout! Learn more

10-Day Weather Forecast

Advertisements
Track Severe Weather on mobile